createdAt,value
2018-04-10T00:00:45.743Z,37.30
2018-04-10T00:01:45.741Z,36.20
2018-04-10T00:02:45.738Z,37.70
2018-04-10T00:03:45.737Z,37.50
2018-04-10T00:04:45.940Z,36.90
2018-04-10T00:05:45.735Z,37.80
2018-04-10T00:06:45.745Z,36.70
2018-04-10T00:07:45.732Z,36.90
2018-04-10T00:08:45.937Z,36.70
2018-04-10T00:09:45.730Z,37.40
2018-04-10T00:10:45.735Z,36.90
2018-04-10T00:11:45.731Z,37.70
2018-04-10T00:12:45.738Z,37.10
2018-04-10T00:13:45.724Z,38.10
2018-04-10T00:14:45.725Z,36.70
2018-04-10T00:15:45.725Z,37.10
2018-04-10T00:16:45.723Z,37.70
2018-04-10T00:17:45.723Z,37.50
2018-04-10T00:18:45.733Z,36.40
2018-04-10T00:19:45.722Z,37.80
2018-04-10T00:20:45.719Z,37.20
2018-04-10T00:21:45.939Z,38.20
2018-04-10T00:22:45.717Z,37.90
2018-04-10T00:23:45.935Z,39.10
2018-04-10T00:24:45.715Z,37.00
2018-04-10T00:25:45.730Z,38.10
2018-04-10T00:26:45.730Z,37.20
2018-04-10T00:27:45.716Z,38.20
2018-04-10T00:28:45.728Z,38.80
2018-04-10T00:29:45.734Z,38.40
2018-04-10T00:30:45.726Z,37.20
2018-04-10T00:31:45.723Z,38.50
2018-04-10T00:32:45.916Z,38.50
2018-04-10T00:33:45.710Z,38.30
2018-04-10T00:34:45.723Z,37.70
2018-04-10T00:35:45.711Z,38.20
2018-04-10T00:36:45.707Z,38.50
2018-04-10T00:37:45.706Z,38.20
2018-04-10T00:38:45.710Z,38.40
2018-04-10T00:39:45.713Z,37.50
2018-04-10T00:40:45.704Z,37.30
2018-04-10T00:41:45.702Z,36.90
2018-04-10T00:42:45.709Z,36.90
2018-04-10T00:43:45.700Z,36.80
2018-04-10T00:44:45.699Z,37.60
2018-04-10T00:45:45.744Z,36.20
2018-04-10T00:46:45.695Z,38.00
2018-04-10T00:47:45.909Z,36.50
2018-04-10T00:48:45.709Z,37.30
2018-04-10T00:49:45.899Z,35.90
2018-04-10T00:50:45.693Z,36.90
2018-04-10T00:51:45.718Z,36.10
2018-04-10T00:52:45.691Z,36.60
2018-04-10T00:53:45.705Z,35.90
2018-04-10T00:54:45.690Z,37.00
2018-04-10T00:55:45.902Z,37.30
2018-04-10T00:56:45.701Z,37.10
2018-04-10T00:57:45.890Z,36.40
2018-04-10T00:58:45.685Z,37.60
2018-04-10T00:59:45.686Z,38.50
2018-04-10T01:00:45.686Z,38.50
2018-04-10T01:01:45.683Z,38.10
2018-04-10T01:02:45.681Z,38.30
2018-04-10T01:03:45.680Z,39.40
2018-04-10T01:04:45.893Z,37.90
2018-04-10T01:05:45.727Z,37.80
2018-04-10T01:06:45.675Z,38.40
2018-04-10T01:07:45.681Z,37.50
2018-04-10T01:08:45.676Z,38.00
2018-04-10T01:09:45.673Z,39.40
2018-04-10T01:10:45.674Z,39.50
2018-04-10T01:11:45.671Z,38.60
2018-04-10T01:12:45.671Z,38.80
2018-04-10T01:13:45.680Z,38.60
2018-04-10T01:14:45.684Z,40.00
2018-04-10T01:15:45.669Z,38.70
2018-04-10T01:16:45.667Z,38.50
2018-04-10T01:17:45.667Z,40.90
2018-04-10T01:18:45.667Z,40.00
2018-04-10T01:19:45.680Z,39.70
2018-04-10T01:20:45.878Z,39.10
2018-04-10T01:21:45.674Z,39.90
2018-04-10T01:22:45.665Z,40.50
2018-04-10T01:23:45.665Z,39.10
2018-04-10T01:24:45.659Z,39.20
2018-04-10T01:25:45.659Z,40.10
2018-04-10T01:26:45.656Z,37.70
2018-04-10T01:27:45.657Z,38.80
2018-04-10T01:28:45.860Z,38.40
2018-04-10T01:29:45.664Z,38.80
2018-04-10T01:30:45.657Z,39.40
2018-04-10T01:31:45.652Z,38.80
2018-04-10T01:32:45.669Z,38.90
2018-04-10T01:33:45.651Z,38.40
2018-04-10T01:34:45.663Z,38.10
2018-04-10T01:35:45.652Z,40.00
2018-04-10T01:36:45.670Z,39.40
2018-04-10T01:37:45.864Z,39.80
2018-04-10T01:38:45.849Z,39.90
2018-04-10T01:39:45.865Z,39.40
2018-04-10T01:40:45.645Z,40.40
2018-04-10T01:41:45.858Z,38.60
2018-04-10T01:42:45.845Z,39.60
2018-04-10T01:43:45.641Z,40.00
2018-04-10T01:44:45.655Z,40.60
2018-04-10T01:45:45.639Z,40.30
2018-04-10T01:46:45.640Z,39.50
2018-04-10T01:47:45.638Z,40.60
2018-04-10T01:48:45.639Z,40.80
2018-04-10T01:49:45.841Z,38.10
2018-04-10T01:50:45.633Z,39.70
2018-04-10T01:51:45.849Z,41.30
2018-04-10T01:52:45.841Z,40.30
2018-04-10T01:53:45.837Z,39.00
2018-04-10T01:54:45.631Z,42.00
2018-04-10T01:55:45.628Z,41.10
2018-04-10T01:56:45.638Z,40.30
2018-04-10T01:57:45.627Z,40.10
2018-04-10T01:58:45.830Z,39.40
2018-04-10T01:59:45.627Z,40.00
2018-04-10T02:00:45.624Z,40.90
2018-04-10T02:01:45.624Z,40.20
2018-04-10T02:02:45.622Z,40.40
2018-04-10T02:03:45.623Z,41.50
2018-04-10T02:04:45.626Z,39.80
2018-04-10T02:05:45.631Z,42.40
2018-04-10T02:06:45.821Z,40.80
2018-04-10T02:07:45.619Z,40.70
2018-04-10T02:08:45.616Z,42.00
2018-04-10T02:09:45.614Z,41.30
2018-04-10T02:10:45.620Z,40.80
2018-04-10T02:17:16.207Z,40.60
2018-04-10T02:18:03.399Z,41.40
2018-04-10T02:19:03.189Z,41.50
2018-04-10T02:20:03.188Z,42.00
2018-04-10T02:21:03.186Z,39.70
2018-04-10T02:22:03.189Z,41.30
2018-04-10T02:23:03.187Z,39.30
2018-04-10T02:24:03.198Z,37.90
2018-04-10T02:25:03.428Z,40.00
2018-04-10T02:26:03.181Z,38.70
2018-04-10T02:27:03.191Z,38.90
2018-04-10T02:28:03.204Z,39.10
2018-04-10T02:29:03.178Z,38.30
2018-04-10T02:30:03.394Z,40.20
2018-04-10T02:31:03.174Z,39.10
2018-04-10T02:32:03.188Z,39.30
2018-04-10T02:33:03.380Z,37.70
2018-04-10T02:34:03.176Z,37.80
2018-04-10T02:35:03.173Z,38.40
2018-04-10T02:36:03.178Z,36.90
2018-04-10T02:37:03.179Z,38.70
2018-04-10T02:38:03.169Z,37.90
2018-04-10T02:39:03.384Z,37.80
2018-04-10T02:40:03.384Z,38.30
2018-04-10T02:41:03.167Z,38.00
2018-04-10T02:42:03.176Z,37.90
2018-04-10T02:43:03.164Z,38.10
2018-04-10T02:44:03.370Z,37.50
2018-04-10T02:45:03.173Z,37.50
2018-04-10T02:46:03.365Z,37.00
2018-04-10T02:47:03.159Z,36.90
2018-04-10T02:48:03.361Z,36.90
2018-04-10T02:49:03.361Z,37.40
2018-04-10T02:50:03.157Z,38.90
2018-04-10T02:51:03.155Z,37.20
2018-04-10T02:52:03.357Z,38.30
2018-04-10T02:53:03.155Z,36.10
2018-04-10T02:54:03.154Z,37.00
2018-04-10T02:55:03.352Z,36.50
2018-04-10T02:56:03.163Z,38.30
2018-04-10T02:57:03.148Z,36.30
2018-04-10T02:58:03.363Z,37.60
2018-04-10T02:59:03.143Z,36.30
2018-04-10T03:00:03.141Z,36.10
2018-04-10T03:01:03.152Z,36.40
2018-04-10T03:02:03.143Z,36.20
2018-04-10T03:03:03.141Z,35.90
2018-04-10T03:04:03.139Z,37.40
2018-04-10T03:05:03.136Z,37.80
2018-04-10T03:06:03.354Z,38.50
2018-04-10T03:07:03.160Z,38.60
2018-04-10T03:08:03.133Z,37.40
2018-04-10T03:09:03.147Z,38.60
2018-04-10T03:10:03.130Z,36.60
2018-04-10T03:11:03.128Z,37.80
2018-04-10T03:12:03.138Z,38.10
2018-04-10T03:13:03.355Z,38.50
2018-04-10T03:14:03.125Z,36.90
2018-04-10T03:15:03.130Z,36.40
2018-04-10T03:16:03.143Z,36.30
2018-04-10T03:17:03.326Z,37.30
2018-04-10T03:18:03.132Z,36.90
2018-04-10T03:19:03.121Z,36.90
2018-04-10T03:20:03.128Z,36.30
2018-04-10T03:21:03.116Z,37.60
2018-04-10T03:22:03.131Z,37.60
2018-04-10T03:23:03.127Z,37.50
2018-04-10T03:24:03.127Z,37.30
2018-04-10T03:25:03.327Z,37.10
2018-04-10T03:26:03.326Z,37.40
2018-04-10T03:27:03.115Z,37.00
2018-04-10T03:28:03.322Z,37.20
2018-04-10T03:29:03.324Z,36.70
2018-04-10T03:30:03.118Z,37.60
2018-04-10T03:31:03.103Z,36.90
2018-04-10T03:32:03.111Z,38.00
2018-04-10T03:33:03.101Z,38.60
2018-04-10T03:34:03.108Z,38.20
2018-04-10T03:35:03.101Z,36.60
2018-04-10T03:36:03.096Z,37.70
2018-04-10T03:37:03.095Z,36.50
2018-04-10T03:38:03.114Z,36.30
2018-04-10T03:39:03.308Z,36.90
2018-04-10T03:40:03.093Z,35.50
2018-04-10T03:41:03.295Z,35.50
2018-04-10T03:42:03.100Z,35.70
2018-04-10T03:43:03.085Z,35.70
2018-04-10T03:44:03.287Z,35.70
2018-04-10T03:45:03.082Z,35.70
2018-04-10T03:46:03.082Z,35.90
2018-04-10T03:47:03.078Z,36.50
2018-04-10T03:48:03.079Z,36.10
2018-04-10T03:49:03.281Z,36.70
2018-04-10T03:50:03.077Z,36.60
2018-04-10T03:51:03.074Z,36.30
2018-04-10T03:52:03.082Z,37.60
2018-04-10T03:53:03.081Z,38.10
2018-04-10T03:54:03.274Z,38.20
2018-04-10T03:55:03.066Z,34.50
2018-04-10T03:56:03.065Z,35.20
2018-04-10T03:57:03.064Z,35.70
2018-04-10T03:58:03.068Z,35.90
2018-04-10T03:59:03.075Z,37.60
2018-04-10T04:00:03.059Z,35.80
2018-04-10T04:01:03.262Z,36.50
2018-04-10T04:02:03.097Z,36.80
2018-04-10T04:03:03.054Z,37.40
2018-04-10T04:04:03.066Z,37.60
2018-04-10T04:05:03.051Z,37.40
2018-04-10T04:06:03.062Z,37.50
2018-04-10T04:07:03.051Z,38.20
2018-04-10T04:08:03.267Z,37.20
2018-04-10T04:09:03.044Z,37.60
2018-04-10T04:10:03.043Z,36.80
2018-04-10T04:11:03.055Z,37.50
2018-04-10T04:12:03.245Z,38.90
2018-04-10T04:13:03.052Z,35.60
2018-04-10T04:14:03.042Z,34.50
2018-04-10T04:15:03.036Z,34.00
2018-04-10T04:16:03.306Z,36.40
2018-04-10T04:17:03.058Z,34.80
2018-04-10T04:18:03.031Z,37.60
2018-04-10T04:19:03.281Z,36.60
2018-04-10T04:20:03.030Z,34.30
2018-04-10T04:21:03.028Z,35.70
2018-04-10T04:22:03.026Z,36.80
2018-04-10T04:23:03.045Z,36.10
2018-04-10T04:24:03.032Z,35.90
2018-04-10T04:25:03.018Z,36.20
2018-04-10T04:26:03.063Z,36.50
2018-04-10T04:27:03.217Z,36.50
2018-04-10T04:28:03.219Z,37.20
2018-04-10T04:29:03.230Z,35.70
2018-04-10T04:30:03.236Z,35.30
2018-04-10T04:31:03.018Z,34.80
2018-04-10T04:32:03.004Z,36.80
2018-04-10T04:33:03.206Z,35.70
2018-04-10T04:34:03.002Z,35.40
2018-04-10T04:35:03.011Z,36.40
2018-04-10T04:36:02.999Z,37.00
2018-04-10T04:37:02.997Z,36.60
2018-04-10T04:38:02.995Z,35.30
2018-04-10T04:39:02.992Z,34.80
2018-04-10T04:40:03.210Z,34.00
2018-04-10T04:41:02.992Z,35.40
2018-04-10T04:42:02.988Z,34.40
2018-04-10T04:43:02.986Z,36.10
2018-04-10T04:44:02.995Z,34.20
2018-04-10T04:45:02.984Z,36.80
2018-04-10T04:46:02.984Z,35.20
2018-04-10T04:47:02.982Z,34.80
2018-04-10T04:48:02.975Z,35.10
2018-04-10T04:49:02.987Z,36.20
2018-04-10T04:50:02.976Z,34.10
2018-04-10T04:51:02.972Z,35.10
2018-04-10T04:52:02.970Z,34.70
2018-04-10T04:53:03.173Z,34.00
2018-04-10T04:54:02.976Z,34.20
2018-04-10T04:55:02.966Z,33.00
2018-04-10T04:56:02.976Z,34.90
2018-04-10T04:57:02.962Z,34.50
2018-04-10T04:58:02.961Z,34.10
2018-04-10T04:59:02.971Z,34.20
2018-04-10T05:00:02.955Z,33.60
2018-04-10T05:01:03.168Z,35.50
2018-04-10T05:02:03.158Z,33.30
2018-04-10T05:03:02.949Z,35.20
2018-04-10T05:04:02.950Z,33.80
2018-04-10T05:05:02.946Z,34.30
2018-04-10T05:06:03.159Z,34.50
2018-04-10T05:07:02.942Z,34.80
2018-04-10T05:08:02.952Z,34.60
2018-04-10T05:09:02.943Z,33.20
2018-04-10T05:10:02.943Z,34.00
2018-04-10T05:11:02.947Z,33.00
2018-04-10T05:12:03.150Z,34.00
2018-04-10T05:13:03.148Z,33.00
2018-04-10T05:14:03.140Z,32.40
2018-04-10T05:15:02.933Z,32.20
2018-04-10T05:16:02.969Z,32.70
2018-04-10T05:17:02.962Z,32.80
2018-04-10T05:18:02.936Z,33.00
2018-04-10T05:19:03.140Z,33.40
2018-04-10T05:20:03.154Z,33.40
2018-04-10T05:21:03.123Z,34.00
2018-04-10T05:22:02.943Z,32.80
2018-04-10T05:23:02.914Z,32.50
2018-04-10T05:24:02.913Z,34.50
2018-04-10T05:25:02.912Z,33.00
2018-04-10T05:26:03.125Z,33.70
2018-04-10T05:27:02.916Z,35.00
2018-04-10T05:28:02.915Z,33.20
2018-04-10T05:29:02.902Z,32.90
2018-04-10T05:30:03.119Z,32.80
2018-04-10T05:31:03.105Z,32.70
2018-04-10T05:32:03.104Z,32.40
2018-04-10T05:33:03.100Z,33.90
2018-04-10T05:34:02.892Z,32.40
2018-04-10T05:35:02.890Z,31.90
2018-04-10T05:36:02.888Z,32.40
2018-04-10T05:37:02.889Z,31.60
2018-04-10T05:38:02.885Z,31.90
2018-04-10T05:39:02.895Z,31.50
2018-04-10T05:40:02.882Z,32.00
2018-04-10T05:41:02.878Z,30.80
2018-04-10T05:42:02.886Z,32.80
2018-04-10T05:43:03.081Z,32.50
2018-04-10T05:44:02.885Z,32.70
2018-04-10T05:45:02.883Z,33.60
2018-04-10T05:46:03.085Z,32.70
2018-04-10T05:47:02.879Z,33.30
2018-04-10T05:48:02.878Z,33.30
2018-04-10T05:49:02.862Z,32.60
2018-04-10T05:50:02.876Z,31.60
2018-04-10T05:51:03.062Z,30.70
2018-04-10T05:52:03.061Z,29.30
2018-04-10T05:53:02.873Z,31.50
2018-04-10T05:54:02.852Z,29.70
2018-04-10T05:55:02.862Z,29.70
2018-04-10T05:56:02.849Z,30.00
2018-04-10T05:57:02.862Z,29.50
2018-04-10T05:58:02.847Z,28.80
2018-04-10T05:59:02.844Z,30.00
2018-04-10T06:00:02.846Z,29.20
2018-04-10T06:01:02.840Z,28.10
2018-04-10T06:02:02.848Z,27.70
2018-04-10T06:03:03.041Z,27.20
2018-04-10T06:04:02.862Z,27.40
2018-04-10T06:05:02.839Z,27.80
2018-04-10T06:06:03.045Z,27.20
2018-04-10T06:07:02.854Z,26.50
2018-04-10T06:08:02.836Z,26.70
2018-04-10T06:09:02.828Z,26.80
2018-04-10T06:10:02.824Z,27.10
2018-04-10T06:11:02.833Z,25.20
2018-04-10T06:12:03.026Z,25.80
2018-04-10T06:13:02.820Z,26.40
2018-04-10T06:14:02.821Z,25.40
2018-04-10T06:15:02.819Z,24.80
2018-04-10T06:16:02.815Z,23.60
2018-04-10T06:17:02.812Z,24.50
2018-04-10T06:18:02.815Z,23.60
2018-04-10T06:19:03.015Z,24.50
2018-04-10T06:20:03.022Z,22.80
2018-04-10T06:21:03.012Z,23.10
2018-04-10T06:22:03.010Z,23.00
2018-04-10T06:23:02.805Z,23.00
2018-04-10T06:24:02.818Z,22.70
2018-04-10T06:25:02.826Z,23.00
2018-04-10T06:26:02.803Z,22.80
2018-04-10T06:27:03.017Z,22.00
2018-04-10T06:28:03.002Z,20.70
2018-04-10T06:29:03.000Z,22.70
2018-04-10T06:30:02.793Z,22.20
2018-04-10T06:31:02.802Z,21.00
2018-04-10T06:32:02.801Z,21.20
2018-04-10T06:33:02.789Z,21.10
2018-04-10T06:34:02.802Z,21.10
2018-04-10T06:35:02.790Z,20.80
2018-04-10T06:36:02.798Z,20.70
2018-04-10T06:37:02.785Z,19.90
2018-04-10T06:38:02.785Z,20.80
2018-04-10T06:39:02.781Z,19.80
2018-04-10T06:40:02.780Z,20.20
2018-04-10T06:41:02.792Z,19.80
2018-04-10T06:42:02.777Z,20.00
2018-04-10T06:43:02.785Z,20.90
2018-04-10T06:44:02.772Z,20.20
2018-04-10T06:45:02.772Z,19.90
2018-04-10T06:46:03.009Z,20.70
2018-04-10T06:47:02.770Z,21.10
2018-04-10T06:48:02.779Z,20.30
2018-04-10T06:49:02.765Z,20.40
2018-04-10T06:50:02.793Z,20.30
2018-04-10T06:51:02.777Z,19.60
2018-04-10T06:52:02.967Z,18.90
2018-04-10T06:53:02.773Z,19.90
2018-04-10T06:54:02.760Z,19.80
2018-04-10T06:55:02.786Z,20.30
2018-04-10T06:56:02.756Z,19.90
2018-04-10T06:57:02.960Z,18.90
2018-04-10T06:58:02.757Z,18.30
2018-04-10T06:59:02.751Z,18.80
2018-04-10T07:00:02.752Z,19.10
2018-04-10T07:01:02.761Z,17.90
2018-04-10T07:02:02.749Z,17.40
2018-04-10T07:03:02.751Z,17.70
2018-04-10T07:04:02.760Z,17.10
2018-04-10T07:05:02.760Z,17.60
2018-04-10T07:06:02.746Z,16.40
2018-04-10T07:07:02.757Z,16.70
2018-04-10T07:08:02.740Z,16.60
2018-04-10T07:09:02.741Z,16.60
2018-04-10T07:10:02.750Z,16.90
2018-04-10T07:11:02.738Z,15.60
2018-04-10T07:12:02.951Z,16.10
2018-04-10T07:13:02.747Z,16.00
2018-04-10T07:14:02.940Z,15.40
2018-04-10T07:15:02.735Z,15.50
2018-04-10T07:16:02.732Z,16.00
2018-04-10T07:17:02.730Z,15.50
2018-04-10T07:18:02.934Z,15.40
2018-04-10T07:19:02.754Z,14.90
2018-04-10T07:20:02.738Z,15.00
2018-04-10T07:21:02.724Z,15.40
2018-04-10T07:22:02.725Z,14.60
2018-04-10T07:23:02.721Z,13.70
2018-04-10T07:24:02.720Z,14.60
2018-04-10T07:25:02.719Z,14.20
2018-04-10T07:26:02.719Z,13.70
2018-04-10T07:27:02.751Z,14.00
2018-04-10T07:28:02.922Z,15.00
2018-04-10T07:29:02.747Z,13.20
2018-04-10T07:30:02.717Z,12.90
2018-04-10T07:31:02.715Z,12.90
2018-04-10T07:32:02.713Z,13.50
2018-04-10T07:33:02.715Z,12.50
2018-04-10T07:34:02.959Z,12.50
2018-04-10T07:35:02.725Z,13.00
2018-04-10T07:36:02.721Z,12.70
2018-04-10T07:37:02.711Z,12.80
2018-04-10T07:38:02.712Z,12.30
2018-04-10T07:39:02.724Z,13.30
2018-04-10T07:40:02.709Z,11.70
2018-04-10T07:41:02.716Z,12.90
2018-04-10T07:42:02.710Z,13.10
2018-04-10T07:43:02.706Z,13.00
2018-04-10T07:44:02.708Z,13.60
2018-04-10T07:45:02.705Z,13.70
2018-04-10T07:46:02.951Z,13.90
2018-04-10T07:47:02.716Z,13.10
2018-04-10T07:48:02.718Z,13.60
2018-04-10T07:49:02.908Z,13.80
2018-04-10T07:50:02.915Z,13.90
2018-04-10T07:51:02.706Z,12.30
2018-04-10T07:52:02.702Z,12.70
2018-04-10T07:53:02.714Z,12.10
2018-04-10T07:54:02.916Z,12.60
2018-04-10T07:55:02.701Z,12.50
2018-04-10T07:56:02.710Z,11.60
2018-04-10T07:57:02.714Z,11.10
2018-04-10T07:58:02.711Z,12.10
2018-04-10T07:59:02.700Z,10.20
2018-04-10T08:00:02.710Z,9.30
2018-04-10T08:01:02.712Z,10.90
2018-04-10T08:02:02.703Z,10.60
2018-04-10T08:03:02.712Z,10.20
2018-04-10T08:04:02.715Z,9.90
2018-04-10T08:05:02.703Z,10.20
2018-04-10T08:06:02.926Z,9.30
2018-04-10T08:07:02.707Z,9.80
2018-04-10T08:08:02.716Z,10.00
2018-04-10T08:09:02.905Z,9.90
2018-04-10T08:10:02.702Z,9.30
2018-04-10T08:11:02.919Z,9.50
2018-04-10T08:12:02.905Z,9.70
2018-04-10T08:13:02.714Z,10.40
2018-04-10T08:14:02.715Z,10.50
2018-04-10T08:15:02.931Z,9.60
2018-04-10T08:16:02.705Z,9.40
2018-04-10T08:17:02.705Z,9.40
2018-04-10T08:18:02.708Z,9.40
2018-04-10T08:19:02.909Z,9.60
2018-04-10T08:20:02.716Z,10.00
2018-04-10T08:21:02.908Z,8.10
2018-04-10T08:22:02.912Z,8.40
2018-04-10T08:23:02.705Z,8.50
2018-04-10T08:24:02.726Z,8.80
2018-04-10T08:25:02.909Z,9.10
2018-04-10T08:26:02.708Z,8.90
2018-04-10T08:27:02.705Z,9.00
2018-04-10T08:28:02.926Z,8.00
2018-04-10T08:29:02.909Z,7.60
2018-04-10T08:30:02.719Z,8.10
2018-04-10T08:31:02.708Z,8.20
2018-04-10T08:32:02.710Z,8.10
2018-04-10T08:33:02.709Z,7.90
2018-04-10T08:34:02.725Z,7.30
2018-04-10T08:35:02.713Z,6.90
2018-04-10T08:36:02.710Z,7.10
2018-04-10T08:37:02.715Z,6.30
2018-04-10T08:38:02.727Z,6.10
2018-04-10T08:39:02.712Z,6.30
2018-04-10T08:40:02.916Z,6.70
2018-04-10T08:41:02.714Z,6.20
2018-04-10T08:42:02.930Z,5.90
2018-04-10T08:43:02.920Z,5.40
2018-04-10T08:44:02.719Z,5.50
2018-04-10T08:45:02.737Z,4.30
2018-04-10T08:46:02.731Z,4.70
2018-04-10T08:47:02.719Z,4.50
2018-04-10T08:48:02.720Z,3.40
2018-04-10T08:49:02.924Z,3.80
2018-04-10T08:50:02.928Z,3.80
2018-04-10T08:51:02.734Z,3.80
2018-04-10T08:52:02.723Z,4.50
2018-04-10T08:53:02.735Z,4.40
2018-04-10T08:54:02.745Z,4.10
2018-04-10T08:55:02.735Z,4.00
2018-04-10T08:56:02.928Z,4.30
2018-04-10T08:57:02.726Z,3.60
2018-04-10T08:58:02.928Z,4.30
2018-04-10T08:59:02.728Z,3.90
2018-04-10T09:00:02.942Z,3.80
2018-04-10T09:01:02.740Z,3.10
2018-04-10T09:02:02.727Z,3.30
2018-04-10T09:03:02.737Z,3.20
2018-04-10T09:04:02.739Z,3.00
2018-04-10T09:05:02.741Z,2.80
2018-04-10T09:06:02.729Z,2.40
2018-04-10T09:07:02.733Z,2.40
2018-04-10T09:08:02.743Z,2.50
2018-04-10T09:09:02.731Z,2.50
2018-04-10T09:10:02.733Z,2.40
2018-04-10T09:11:02.733Z,2.90
2018-04-10T09:12:02.936Z,2.60
2018-04-10T09:13:02.948Z,2.90
2018-04-10T09:14:02.736Z,2.40
2018-04-10T09:15:02.747Z,2.60
2018-04-10T09:16:02.743Z,2.80
2018-04-10T09:17:02.734Z,2.80
2018-04-10T09:18:02.741Z,2.80
2018-04-10T09:19:02.737Z,2.40
2018-04-10T09:20:02.739Z,2.80
2018-04-10T09:21:02.746Z,2.90
2018-04-10T09:22:02.750Z,2.90
2018-04-10T09:23:02.734Z,3.60
2018-04-10T09:24:02.740Z,3.00
2018-04-10T09:25:02.950Z,2.50
2018-04-10T09:26:02.741Z,2.80
2018-04-10T09:27:02.750Z,2.80
2018-04-10T09:28:02.763Z,2.70
2018-04-10T09:29:02.749Z,2.20
2018-04-10T09:30:02.740Z,2.70
2018-04-10T09:31:02.739Z,2.80
2018-04-10T09:32:02.740Z,2.80
2018-04-10T09:33:02.750Z,3.30
2018-04-10T09:34:02.772Z,3.30
2018-04-10T09:35:02.759Z,3.60
2018-04-10T09:36:02.957Z,3.50
2018-04-10T09:37:02.738Z,3.60
2018-04-10T09:38:02.751Z,3.00
2018-04-10T09:39:02.764Z,3.70
2018-04-10T09:40:02.751Z,3.40
2018-04-10T09:41:02.942Z,3.80
2018-04-10T09:42:02.743Z,3.80
2018-04-10T09:43:02.752Z,3.60
2018-04-10T09:44:02.741Z,3.50
2018-04-10T09:45:02.954Z,3.00
2018-04-10T09:46:02.745Z,3.00
2018-04-10T09:47:02.763Z,2.80
2018-04-10T09:48:02.761Z,2.90
2018-04-10T09:49:02.946Z,2.90
2018-04-10T09:50:02.744Z,3.10
2018-04-10T09:51:02.754Z,3.20
2018-04-10T09:52:02.742Z,3.00
2018-04-10T09:53:02.959Z,3.20
2018-04-10T09:54:02.958Z,2.90
2018-04-10T09:55:02.748Z,2.90
2018-04-10T09:56:02.743Z,2.70
2018-04-10T09:57:02.746Z,3.20
2018-04-10T09:58:02.769Z,3.00
2018-04-10T09:59:02.959Z,2.90
2018-04-10T10:00:02.949Z,3.20
2018-04-10T10:01:02.760Z,3.20
2018-04-10T10:02:02.746Z,3.10
2018-04-10T10:03:02.756Z,2.70
2018-04-10T10:04:02.765Z,3.20
2018-04-10T10:05:02.760Z,2.70
2018-04-10T10:06:02.747Z,3.00
2018-04-10T10:07:02.748Z,2.80
2018-04-10T10:08:02.756Z,2.70
2018-04-10T10:09:02.746Z,2.90
2018-04-10T10:10:02.749Z,2.70
2018-04-10T10:11:02.949Z,2.60
2018-04-10T10:12:02.749Z,2.60
2018-04-10T10:13:02.751Z,2.60
2018-04-10T10:14:02.753Z,2.20
2018-04-10T10:15:02.761Z,2.70
2018-04-10T10:16:02.753Z,2.50
2018-04-10T10:17:02.760Z,2.30
2018-04-10T10:18:02.762Z,2.30
2018-04-10T10:19:02.764Z,2.50
2018-04-10T10:20:02.763Z,2.50
2018-04-10T10:21:02.773Z,2.70
2018-04-10T10:22:02.761Z,2.40
2018-04-10T10:23:02.756Z,2.40
2018-04-10T10:24:02.760Z,2.20
2018-04-10T10:25:02.751Z,2.70
2018-04-10T10:26:02.793Z,2.70
2018-04-10T10:27:02.749Z,2.50
2018-04-10T10:28:02.761Z,2.50
2018-04-10T10:29:02.760Z,2.50
2018-04-10T10:30:02.750Z,2.70
2018-04-10T10:31:02.750Z,2.40
2018-04-10T10:32:02.751Z,2.30
2018-04-10T10:33:02.999Z,2.50
2018-04-10T10:34:02.764Z,2.40
2018-04-10T10:35:02.965Z,2.20
2018-04-10T10:36:02.766Z,2.20
2018-04-10T10:37:02.770Z,2.00
2018-04-10T10:38:02.767Z,2.40
2018-04-10T10:39:02.764Z,2.20
2018-04-10T10:40:02.762Z,2.10
2018-04-10T10:41:02.765Z,2.40
2018-04-10T10:42:02.764Z,2.10
2018-04-10T10:43:02.766Z,2.60
2018-04-10T10:44:02.754Z,2.20
2018-04-10T10:45:02.766Z,2.30
2018-04-10T10:46:02.763Z,2.30
2018-04-10T10:47:02.806Z,2.60
2018-04-10T10:48:02.754Z,2.40
2018-04-10T10:49:02.764Z,2.50
2018-04-10T10:50:02.767Z,2.80
2018-04-10T10:51:02.754Z,2.70
2018-04-10T10:52:02.753Z,2.80
2018-04-10T10:53:02.765Z,2.40
2018-04-10T10:54:02.787Z,2.90
2018-04-10T10:55:02.757Z,2.50
2018-04-10T10:56:02.757Z,2.90
2018-04-10T10:57:02.768Z,2.60
2018-04-10T10:58:02.772Z,2.40
2018-04-10T10:59:02.769Z,2.60
2018-04-10T11:00:02.768Z,2.80
2018-04-10T11:01:02.790Z,2.70
2018-04-10T11:02:02.763Z,2.50
2018-04-10T11:03:02.761Z,2.60
2018-04-10T11:04:02.775Z,2.60
2018-04-10T11:05:02.770Z,2.90
2018-04-10T11:06:02.769Z,2.40
2018-04-10T11:07:02.771Z,2.20
2018-04-10T11:08:02.775Z,2.20
2018-04-10T11:09:02.782Z,2.30
2018-04-10T11:10:02.760Z,2.40
2018-04-10T11:11:02.759Z,2.50
2018-04-10T11:12:02.775Z,2.70
2018-04-10T11:13:02.774Z,2.70
2018-04-10T11:14:02.775Z,2.60
2018-04-10T11:15:02.789Z,2.70
2018-04-10T11:16:02.784Z,3.00
2018-04-10T11:17:02.764Z,2.90
2018-04-10T11:18:02.776Z,2.90
2018-04-10T11:19:02.777Z,2.70
2018-04-10T11:20:02.785Z,2.60
2018-04-10T11:21:02.767Z,2.60
2018-04-10T11:22:02.774Z,2.80
2018-04-10T11:23:02.780Z,2.90
2018-04-10T11:24:02.767Z,2.40
2018-04-10T11:25:02.768Z,2.90
2018-04-10T11:26:02.781Z,3.00
2018-04-10T11:27:02.788Z,2.80
2018-04-10T11:28:02.783Z,2.70
2018-04-10T11:29:02.781Z,2.50
2018-04-10T11:30:02.785Z,2.70
2018-04-10T11:31:02.779Z,3.20
2018-04-10T11:32:02.783Z,2.60
2018-04-10T11:33:02.784Z,2.60
2018-04-10T11:34:02.784Z,2.70
2018-04-10T11:35:02.983Z,2.60
2018-04-10T11:36:02.772Z,2.70
2018-04-10T11:37:02.782Z,2.60
2018-04-10T11:38:02.774Z,2.90
2018-04-10T11:39:02.776Z,2.80
2018-04-10T11:40:02.801Z,2.80
2018-04-10T11:41:02.789Z,2.80
2018-04-10T11:42:02.788Z,2.70
2018-04-10T11:43:02.999Z,2.40
2018-04-10T11:44:02.783Z,2.40
2018-04-10T11:45:02.800Z,3.10
2018-04-10T11:46:02.780Z,2.90
2018-04-10T11:47:02.790Z,2.60
2018-04-10T11:48:02.998Z,2.40
2018-04-10T11:49:02.781Z,2.50
2018-04-10T11:50:02.784Z,2.70
2018-04-10T11:51:02.781Z,2.30
2018-04-10T11:52:02.785Z,2.10
2018-04-10T11:53:02.804Z,2.50
2018-04-10T11:54:02.786Z,2.30
2018-04-10T11:55:02.989Z,2.40
2018-04-10T11:56:02.784Z,2.50
2018-04-10T11:57:02.795Z,2.20
2018-04-10T11:58:02.795Z,2.00
2018-04-10T11:59:02.805Z,2.40
2018-04-10T12:00:02.816Z,2.10
2018-04-10T12:01:02.790Z,2.10
2018-04-10T12:02:02.804Z,2.30
2018-04-10T12:03:02.788Z,2.70
2018-04-10T12:04:02.790Z,2.00
2018-04-10T12:05:02.803Z,2.10
2018-04-10T12:06:02.803Z,2.70
2018-04-10T12:07:02.802Z,2.70
2018-04-10T12:08:03.004Z,2.20
2018-04-10T12:09:02.793Z,2.20
2018-04-10T12:10:02.807Z,2.20
2018-04-10T12:11:02.803Z,2.00
2018-04-10T12:12:02.792Z,2.20
2018-04-10T12:13:02.791Z,2.10
2018-04-10T12:14:02.807Z,1.90
2018-04-10T12:15:02.803Z,2.30
2018-04-10T12:16:02.829Z,2.00
2018-04-10T12:17:02.792Z,2.10
2018-04-10T12:18:02.814Z,2.10
2018-04-10T12:19:02.793Z,2.00
2018-04-10T12:20:02.797Z,2.30
2018-04-10T12:22:02.795Z,2.40
2018-04-10T12:23:02.794Z,2.20
2018-04-10T12:24:02.819Z,2.40
2018-04-10T12:25:02.822Z,2.10
2018-04-10T12:26:02.810Z,2.10
2018-04-10T12:27:02.814Z,2.10
2018-04-10T12:28:02.817Z,2.20
2018-04-10T12:29:02.809Z,2.30
2018-04-10T12:30:02.800Z,2.40
2018-04-10T12:31:02.802Z,1.90
2018-04-10T12:32:02.800Z,2.20
2018-04-10T12:33:02.799Z,2.20
2018-04-10T12:34:02.809Z,2.10
2018-04-10T12:35:02.810Z,2.00
2018-04-10T12:36:02.812Z,1.70
2018-04-10T12:37:02.803Z,2.00
2018-04-10T12:38:02.802Z,1.80
2018-04-10T12:39:02.811Z,1.70
2018-04-10T12:40:02.800Z,2.10
2018-04-10T12:41:02.812Z,2.00
2018-04-10T12:42:02.819Z,1.60
2018-04-10T12:43:02.815Z,1.80
2018-04-10T12:44:02.816Z,1.80
2018-04-10T12:45:02.806Z,2.00
2018-04-10T12:46:02.805Z,1.70
2018-04-10T12:47:02.806Z,1.80
2018-04-10T12:48:02.815Z,2.20
2018-04-10T12:49:02.806Z,1.90
2018-04-10T12:50:02.809Z,1.80
2018-04-10T12:51:02.804Z,1.90
2018-04-10T12:52:02.804Z,1.90
2018-04-10T12:53:02.821Z,1.70
2018-04-10T12:54:02.809Z,2.00
2018-04-10T12:55:02.820Z,1.90
2018-04-10T12:56:02.821Z,1.90
2018-04-10T12:57:02.910Z,2.00
2018-04-10T12:58:02.821Z,1.70
2018-04-10T12:59:02.811Z,1.70
2018-04-10T13:00:02.810Z,1.70
2018-04-10T13:01:02.813Z,1.60
2018-04-10T13:02:02.813Z,1.50
2018-04-10T13:03:02.813Z,1.90
2018-04-10T13:04:02.811Z,1.80
2018-04-10T13:05:02.822Z,1.60
2018-04-10T13:06:02.827Z,1.60
2018-04-10T13:07:02.829Z,1.50
2018-04-10T13:08:02.836Z,2.00
2018-04-10T13:09:02.817Z,2.30